Glenwood, MN

11:19 AM CST on December 05, 2016 (GMT -0600)
Glenwood Municipal

Weather History for KGHW - December, 2014

Change the Weather History Date:

Friday, December 26, 2014

  Actual Average Record
Temperature  
Mean Temperature 24 °F -  
Max Temperature 26 °F 19 °F 48 °F (2011)
Min Temperature 21 °F 1 °F -30 °F (1950)
Degree Days  
Heating Degree Days 40    
Moisture  
Dew Point 22 °F    
Average Humidity 87    
Maximum Humidity 100    
Minimum Humidity 80    
Precipitation  
Precipitation 0.00 in - - ()
Sea Level Pressure  
Sea Level Pressure 30.04 in    
Wind  
Wind Speed 10 mph (North)    
Max Wind Speed 15 mph    
Max Gust Speed 17 mph    
Visibility 8 miles    
Events Snow    
Averages and records for this station are not official NWS values.
T = Trace of Precipitation, MM = Missing Value Source: NWS Daily Summary

Daily Weather History Graph

Daily Weather History Graph

Search for Another Location

Airport or City:

Trip Planner

Search our weather history database for the weather conditions in past years. The results will help you decide how hot, cold, wet, or windy it might be!

Date:

Astronomy

Dec. 26, 2014 Rise Set
Actual Time 8:00 AM CST 4:43 PM CST
Civil Twilight 7:26 AM CST 5:17 PM CST
Nautical Twilight 6:48 AM CST 5:55 PM CST
Astronomical Twilight 6:12 AM CST 6:31 PM CST
Moon 10:58 AM CST (12/26) 10:42 PM CST (12/26)
Length of Visible Light 9h 50m
Length of Day
8h 42m
Waxing Crescent, 28% of the Moon is Illuminated
Dec 26
Waxing Crescent
Dec 28
First Quarter
Jan 4
Full
Jan 13
Last Quarter
Jan 20
New

Hourly Weather History & Observations

Time (CST) Temp. Windchill Dew Point Humidity Pressure Visibility Wind Dir Wind Speed Gust Speed Precip Events Conditions
12:13 AM 26.6 °F 18.2 °F 26.6 °F 100% 29.90 in 2.5 mi North 8.1 mph - N/A Snow Light Snow
12:33 AM 26.6 °F 17.5 °F 26.6 °F 100% 29.90 in 2.5 mi North 9.2 mph - N/A Snow Light Snow
12:53 AM 26.6 °F 15.7 °F 26.6 °F 100% 29.90 in 3.0 mi North 12.7 mph - N/A Snow Light Snow
1:13 AM 26.6 °F 15.7 °F 24.8 °F 93% 29.89 in 4.0 mi North 12.7 mph - N/A Snow Light Snow
1:33 AM 26.6 °F 16.2 °F 24.8 °F 93% 29.90 in 5.0 mi North 11.5 mph - N/A Snow Light Snow
1:53 AM 26.6 °F 16.8 °F 24.8 °F 93% 29.91 in 3.0 mi North 10.4 mph - N/A Snow Light Snow
2:13 AM 26.6 °F 16.2 °F 24.8 °F 93% 29.91 in 3.0 mi North 11.5 mph - N/A Snow Light Snow
2:33 AM 26.6 °F 16.8 °F 24.8 °F 93% 29.92 in 2.5 mi North 10.4 mph - N/A Snow Light Snow
2:53 AM 26.6 °F 16.8 °F 24.8 °F 93% 29.93 in 3.0 mi North 10.4 mph - N/A Snow Light Snow
3:13 AM 26.6 °F 17.5 °F 24.8 °F 93% 29.93 in 3.0 mi North 9.2 mph - N/A Snow Light Snow
3:33 AM 26.6 °F 16.8 °F 24.8 °F 93% 29.94 in 3.0 mi North 10.4 mph - N/A Snow Light Snow
3:53 AM 26.6 °F 16.2 °F 24.8 °F 93% 29.95 in 3.0 mi North 11.5 mph - N/A Snow Light Snow
4:13 AM 26.6 °F 15.2 °F 24.8 °F 93% 29.95 in 4.0 mi North 13.8 mph - N/A Snow Light Snow
4:33 AM 26.6 °F 16.8 °F 24.8 °F 93% 29.95 in 7.0 mi North 10.4 mph - N/A Snow Light Snow
4:53 AM 26.6 °F 15.7 °F 24.8 °F 93% 29.96 in 5.0 mi North 12.7 mph - N/A Snow Light Snow
5:13 AM 26.6 °F 17.5 °F 24.8 °F 93% 29.97 in 7.0 mi North 9.2 mph - N/A Snow Light Snow
5:33 AM 26.6 °F 17.5 °F 24.8 °F 93% 29.97 in 10.0 mi North 9.2 mph - N/A Snow Light Snow
5:53 AM 26.6 °F 16.8 °F 24.8 °F 93% 29.98 in 7.0 mi North 10.4 mph - N/A Snow Light Snow
6:13 AM 26.6 °F 18.2 °F 24.8 °F 93% 29.99 in 5.0 mi North 8.1 mph - N/A Snow Light Snow
6:33 AM 26.6 °F 18.2 °F 24.8 °F 93% 30.01 in 5.0 mi North 8.1 mph - N/A Snow Light Snow
6:53 AM 26.6 °F 18.2 °F 24.8 °F 93% 30.01 in 4.0 mi North 8.1 mph - N/A Snow Light Snow
7:13 AM 26.6 °F 18.2 °F 24.8 °F 93% 30.02 in 2.5 mi North 8.1 mph - N/A Snow Light Snow
7:33 AM 24.8 °F 16.1 °F 24.8 °F 100% 30.02 in 3.0 mi North 8.1 mph - N/A Snow Light Snow
7:53 AM 24.8 °F 16.1 °F 23.0 °F 93% 30.03 in 3.0 mi North 8.1 mph - N/A Snow Light Snow
8:13 AM 24.8 °F 16.1 °F 23.0 °F 93% 30.03 in 4.0 mi North 8.1 mph - N/A Snow Light Snow
8:33 AM 24.8 °F 16.1 °F 23.0 °F 93% 30.04 in 10.0 mi North 8.1 mph - N/A Snow Light Snow
8:53 AM 24.8 °F 14.6 °F 23.0 °F 93% 30.05 in 10.0 mi NNW 10.4 mph - N/A   Overcast
9:13 AM 24.8 °F 15.3 °F 23.0 °F 93% 30.06 in 10.0 mi North 9.2 mph - N/A   Mostly Cloudy
9:33 AM 24.8 °F 15.3 °F 23.0 °F 93% 30.06 in 10.0 mi North 9.2 mph - N/A   Mostly Cloudy
9:53 AM 26.6 °F 16.8 °F 23.0 °F 86% 30.07 in 10.0 mi North 10.4 mph - N/A   Overcast
10:13 AM 26.6 °F 15.7 °F 23.0 °F 86% 30.07 in 10.0 mi North 12.7 mph 17.3 mph N/A   Overcast
10:33 AM 26.6 °F 16.8 °F 23.0 °F 86% 30.07 in 10.0 mi North 10.4 mph - N/A   Overcast
10:53 AM 26.6 °F 16.2 °F 23.0 °F 86% 30.07 in 10.0 mi North 11.5 mph - N/A   Overcast
11:13 AM 26.6 °F 17.5 °F 21.2 °F 80% 30.07 in 10.0 mi North 9.2 mph - N/A   Overcast
11:34 AM 26.6 °F 16.2 °F 21.2 °F 80% 30.07 in 10.0 mi North 11.5 mph - N/A   Overcast
11:53 AM 26.6 °F 16.8 °F 21.2 °F 80% 30.07 in 10.0 mi North 10.4 mph - N/A   Overcast
12:13 PM 26.6 °F 18.2 °F 21.2 °F 80% 30.07 in 10.0 mi North 8.1 mph - N/A   Overcast
12:33 PM 26.6 °F 18.2 °F 21.2 °F 80% 30.07 in 10.0 mi North 8.1 mph - N/A   Overcast
12:53 PM 26.6 °F 18.2 °F 21.2 °F 80% 30.07 in 10.0 mi North 8.1 mph - N/A   Overcast
1:13 PM 26.6 °F 17.5 °F 21.2 °F 80% 30.07 in 10.0 mi NNW 9.2 mph - N/A   Overcast
1:34 PM 26.6 °F 16.8 °F 21.2 °F 80% 30.07 in 10.0 mi NNW 10.4 mph - N/A   Overcast
1:53 PM 26.6 °F 18.2 °F 21.2 °F 80% 30.07 in 10.0 mi NNW 8.1 mph - N/A   Overcast
2:13 PM 26.6 °F 17.5 °F 21.2 °F 80% 30.07 in 10.0 mi NNW 9.2 mph - N/A   Overcast
2:33 PM 26.6 °F 16.8 °F 21.2 °F 80% 30.07 in 10.0 mi North 10.4 mph 16.1 mph N/A   Overcast
2:53 PM 26.6 °F 16.2 °F 21.2 °F 80% 30.06 in 10.0 mi North 11.5 mph - N/A   Overcast
3:13 PM 26.6 °F 17.5 °F 21.2 °F 80% 30.07 in 10.0 mi North 9.2 mph - N/A   Overcast
3:33 PM 26.6 °F 14.7 °F 21.2 °F 80% 30.07 in 10.0 mi NNW 15.0 mph - N/A   Overcast
3:53 PM 24.8 °F 13.4 °F 21.2 °F 86% 30.07 in 10.0 mi North 12.7 mph 17.3 mph N/A   Overcast
4:13 PM 24.8 °F 13.4 °F 21.2 °F 86% 30.08 in 10.0 mi NNW 12.7 mph - N/A   Overcast
4:33 PM 24.8 °F 14.6 °F 21.2 °F 86% 30.09 in 10.0 mi North 10.4 mph - N/A   Overcast
4:53 PM 24.8 °F 15.3 °F 19.4 °F 80% 30.09 in 10.0 mi North 9.2 mph - N/A   Overcast
5:13 PM 24.8 °F 17.9 °F 19.4 °F 80% 30.11 in 10.0 mi North 5.8 mph - N/A   Overcast
5:33 PM 24.8 °F 14.6 °F 19.4 °F 80% 30.10 in 10.0 mi North 10.4 mph - N/A   Overcast
5:53 PM 24.8 °F 16.1 °F 19.4 °F 80% 30.11 in 10.0 mi North 8.1 mph - N/A   Overcast
6:13 PM 24.8 °F 17.9 °F 19.4 °F 80% 30.12 in 10.0 mi North 5.8 mph - N/A   Overcast
6:33 PM 24.8 °F 15.3 °F 19.4 °F 80% 30.12 in 10.0 mi North 9.2 mph - N/A   Overcast
6:53 PM 24.8 °F 15.3 °F 19.4 °F 80% 30.12 in 10.0 mi North 9.2 mph - N/A   Overcast
7:13 PM 24.8 °F 15.3 °F 19.4 °F 80% 30.12 in 10.0 mi NNW 9.2 mph - N/A   Overcast
7:33 PM 24.8 °F 14.0 °F 19.4 °F 80% 30.12 in 10.0 mi NNW 11.5 mph - N/A   Overcast
7:53 PM 24.8 °F 13.4 °F 19.4 °F 80% 30.12 in 10.0 mi NNW 12.7 mph - N/A   Overcast
8:13 PM 23.0 °F 11.7 °F 19.4 °F 86% 30.12 in 10.0 mi NNW 11.5 mph - N/A   Overcast
8:33 PM 23.0 °F 11.7 °F 19.4 °F 86% 30.11 in 10.0 mi North 11.5 mph - N/A   Overcast
8:53 PM 23.0 °F 11.7 °F 19.4 °F 86% 30.11 in 10.0 mi North 11.5 mph - N/A   Overcast
9:13 PM 23.0 °F 12.4 °F 19.4 °F 86% 30.12 in 10.0 mi North 10.4 mph - N/A   Overcast
9:33 PM 23.0 °F 12.4 °F 19.4 °F 86% 30.11 in 10.0 mi North 10.4 mph - N/A   Overcast
9:53 PM 23.0 °F 13.9 °F 19.4 °F 86% 30.11 in 10.0 mi North 8.1 mph - N/A   Overcast
10:13 PM 23.0 °F 13.1 °F 19.4 °F 86% 30.11 in 10.0 mi North 9.2 mph - N/A   Overcast
10:33 PM 23.0 °F 13.9 °F 19.4 °F 86% 30.10 in 10.0 mi North 8.1 mph - N/A   Overcast
10:53 PM 23.0 °F 13.1 °F 19.4 °F 86% 30.10 in 10.0 mi North 9.2 mph - N/A   Overcast
11:13 PM 23.0 °F 13.9 °F 19.4 °F 86% 30.10 in 10.0 mi North 8.1 mph - N/A   Overcast
11:33 PM 23.0 °F 13.9 °F 19.4 °F 86% 30.09 in 10.0 mi North 8.1 mph - N/A   Overcast
11:53 PM 21.2 °F 10.1 °F 19.4 °F 93% 30.09 in 10.0 mi North 10.4 mph - N/A   Overcast